Flight Track Log - Related Links

Times and Time Zones

All times are in EDT time to prevent confusion due to time zone crossing. See the EJA583 flight status page for this flight to view local times or setup timezone preferences in your user account.

Time Position Orientation Groundspeed Altitude Reporting Facility
EDT Latitude Longitude Course Direction KTS MPH feet Rate Location/Type
Mon 02:19:54 PM 43.9128 -70.8436 182° South 277 319 10,900  Level Boston Center
Mon 02:20:52 PM 43.8633 -70.7411 124° Southeast 330 380 11,000 50 Climbing Boston Center
Mon 02:21:53 PM 43.8008 -70.6164 125° Southeast 358 412 11,000  Level Boston Center
Mon 02:22:54 PM 43.7289 -70.5439 144° Southeast 347 399 11,000  Level Boston Center
Mon 02:23:51 PM 43.6242 -70.5097 167° South 347 399 11,000  Level Boston Center
Mon 02:24:00 PM 43.6412 -70.9607 182° South  Level Estimated
Mon 02:24:52 PM 43.5361 -70.4869 169° South 357 411 11,000  Level Boston Center
Mon 02:25:52 PM 43.4294 -70.4558 168° South 362 417 11,000  Level Boston Center
Mon 02:26:53 PM 43.3394 -70.4331 170° South 362 417 11,000  Level Boston Center
Mon 02:27:53 PM 43.2347 -70.4053 169° South 355 409 11,000  Level Boston Center
Mon 02:28:54 PM 43.1467 -70.3797 168° South 355 409 11,000  Level Boston Center
Mon 02:29:52 PM 43.0503 -70.3517 168° South 355 409 11,000  Level Boston Center
Mon 02:30:52 PM 42.9456 -70.3242 169° South 355 409 11,000  Level Boston Center
Mon 02:31:52 PM 42.8469 -70.2964 168° South 355 409 11,000  Level Boston Center
Mon 02:32:53 PM 42.7508 -70.2714 169° South 355 409 11,000  Level Boston Center
Mon 02:33:54 PM 42.6525 -70.2550 173° South 355 409 11,000 -102 Level Boston Center
Mon 02:34:51 PM 42.5936 -70.3417 227° Southwest 297 342 10,800 -610 Descending Boston Center
Mon 02:35:52 PM 42.5683 -70.4469 252° West 271 312 9,800 -885 Descending Boston Center
Mon 02:36:53 PM 42.5469 -70.5350 252° West 264 304 9,000 -397 Descending Boston Center
Mon 02:37:53 PM 42.5233 -70.6175 249° West 254 292 9,000  Level Boston Center
Mon 02:38:51 PM 42.4994 -70.6969 248° West 242 278 9,000  Level Boston Center
Mon 02:39:51 PM 42.4778 -70.7792 250° West 236 272 9,000  Level Boston Center
Mon 02:40:54 PM 42.4519 -70.8558 245° Southwest 229 264 9,000 -457 Level Boston Center
Mon 02:41:36 PM 42.4333 -70.9167 248° West 230 265 8,200 -1,176 Descending KA90
Mon 02:42:36 PM 42.4167 -71.0000 255° West 218 251 7,000 -1,300 Descending KA90
Mon 02:43:36 PM 42.4000 -71.0667 251° West 219 252 5,600 -1,000 Descending KA90
Mon 02:44:36 PM 42.3667 -71.1500 242° Southwest 220 253 5,000 -316 Descending KA90
Mon 02:45:30 PM 42.3333 -71.2167 236° Southwest 241 277 5,000  Level KA90
Mon 02:46:31 PM 42.2833 -71.2333 194° South 217 250 5,000 -298 Level KA90
Mon 02:47:31 PM 42.2333 -71.2667 206° Southwest 214 246 4,400 -504 Descending KA90
Mon 02:48:30 PM 42.2000 -71.2167 132° Southeast 190 219 4,000 -655 Descending KA90
Mon 02:49:30 PM 42.2333 -71.1667 48° Northeast 182 209 3,100 -500 Descending KA90
Mon 02:50:30 PM 42.2667 -71.1167 48° Northeast 163 188 3,000 -524 Descending KA90
Mon 02:51:36 PM 42.3000 -71.0667 48° Northeast 177 204 2,000 -1,039 Descending KA90
Mon 02:52:37 PM 42.3333 -71.0333 36° Northeast 135 155 800 -1,180 Descending KA90

Login

Don't have an account? Register now (free) for customized features, flight alerts, and more!